createdAt,value
2023-12-20T00:00:14.161Z,49.05
2023-12-20T00:02:40.810Z,49.03
2023-12-20T00:05:07.484Z,49.03
2023-12-20T00:07:34.328Z,49.09
2023-12-20T00:10:01.173Z,49.09
2023-12-20T00:12:27.879Z,49.04
2023-12-20T00:14:54.768Z,49.14
2023-12-20T00:17:21.414Z,49.18
2023-12-20T00:19:48.447Z,49.06
2023-12-20T00:22:15.213Z,49.09
2023-12-20T00:24:42.012Z,49.16
2023-12-20T00:27:08.686Z,49.13
2023-12-20T00:29:35.349Z,48.99
2023-12-20T00:32:02.000Z,49.20
2023-12-20T00:34:28.645Z,49.11
2023-12-20T00:36:55.545Z,49.09
2023-12-20T00:39:22.228Z,49.15
2023-12-20T00:41:48.888Z,48.95
2023-12-20T00:44:15.554Z,49.15
2023-12-20T00:46:42.227Z,49.24
2023-12-20T00:49:09.215Z,49.15
2023-12-20T00:51:36.009Z,49.02
2023-12-20T00:54:02.700Z,49.06
2023-12-20T00:56:29.341Z,49.14
2023-12-20T00:58:56.251Z,49.24
2023-12-20T01:01:23.016Z,49.30
2023-12-20T01:03:49.869Z,49.37
2023-12-20T01:06:16.662Z,49.25
2023-12-20T01:08:43.323Z,49.27
2023-12-20T01:11:10.225Z,49.30
2023-12-20T01:13:36.912Z,49.24
2023-12-20T01:16:03.588Z,49.34
2023-12-20T01:18:30.273Z,49.16
2023-12-20T01:20:57.190Z,49.45
2023-12-20T01:23:23.845Z,49.29
2023-12-20T01:25:50.505Z,49.23
2023-12-20T01:28:17.493Z,49.29
2023-12-20T01:30:44.453Z,49.21
2023-12-20T01:33:11.296Z,49.35
2023-12-20T01:35:38.247Z,49.41
2023-12-20T01:38:04.934Z,49.19
2023-12-20T01:40:31.682Z,49.23
2023-12-20T01:42:58.363Z,49.27
2023-12-20T01:45:25.053Z,49.26
2023-12-20T01:47:51.733Z,49.45
2023-12-20T01:50:18.409Z,49.37
2023-12-20T01:52:45.068Z,49.32
2023-12-20T01:55:11.764Z,49.23
2023-12-20T01:57:38.458Z,49.38
2023-12-20T02:00:05.127Z,49.33
2023-12-20T02:02:31.786Z,49.21
2023-12-20T02:04:58.641Z,49.29
2023-12-20T02:07:25.687Z,49.34
2023-12-20T02:09:52.467Z,49.33
2023-12-20T02:12:19.141Z,49.34
2023-12-20T02:14:45.788Z,49.12
2023-12-20T02:17:12.445Z,49.16
2023-12-20T02:19:39.405Z,49.26
2023-12-20T02:22:06.688Z,49.28
2023-12-20T02:24:33.388Z,49.41
2023-12-20T02:27:00.042Z,49.43
2023-12-20T02:29:26.741Z,49.36
2023-12-20T02:31:53.408Z,49.37
2023-12-20T02:34:20.124Z,49.38
2023-12-20T02:36:47.068Z,49.46
2023-12-20T02:39:13.732Z,49.46
2023-12-20T02:41:40.386Z,49.46
2023-12-20T02:44:07.038Z,49.48
2023-12-20T02:46:33.693Z,49.44
2023-12-20T02:49:00.408Z,49.61
2023-12-20T02:51:27.132Z,49.55
2023-12-20T02:54:12.126Z,49.45
2023-12-20T02:56:57.412Z,49.41
2023-12-20T02:59:42.712Z,49.47
2023-12-20T03:02:27.822Z,49.41
2023-12-20T03:05:12.954Z,49.53
2023-12-20T03:07:58.495Z,49.55
2023-12-20T03:10:43.830Z,49.61
2023-12-20T03:13:29.104Z,49.51
2023-12-20T03:16:14.704Z,49.44
2023-12-20T03:19:00.076Z,49.54
2023-12-20T03:21:45.161Z,49.66
2023-12-20T03:24:30.175Z,49.41
2023-12-20T03:27:15.184Z,49.41
2023-12-20T03:30:00.573Z,49.51
2023-12-20T03:32:46.105Z,49.36
2023-12-20T03:35:31.110Z,49.56
2023-12-20T03:38:16.084Z,49.64
2023-12-20T03:41:01.309Z,49.45
2023-12-20T03:43:46.403Z,49.48
2023-12-20T03:46:31.573Z,49.57
2023-12-20T03:49:16.910Z,49.55
2023-12-20T03:52:02.003Z,49.51
2023-12-20T03:54:47.157Z,49.58
2023-12-20T03:57:32.167Z,49.40
2023-12-20T04:00:17.499Z,49.47
2023-12-20T04:03:02.588Z,49.57
2023-12-20T04:05:47.723Z,49.61
2023-12-20T04:08:14.467Z,49.37
2023-12-20T04:10:41.161Z,49.59
2023-12-20T04:13:07.884Z,49.56
2023-12-20T04:15:34.648Z,49.58
2023-12-20T04:18:01.414Z,49.63
2023-12-20T04:20:28.107Z,49.54
2023-12-20T04:22:55.013Z,49.51
2023-12-20T04:25:21.821Z,49.59
2023-12-20T04:27:49.042Z,49.48
2023-12-20T04:30:16.080Z,49.55
2023-12-20T04:32:42.838Z,49.55
2023-12-20T04:35:09.645Z,49.56
2023-12-20T04:37:36.422Z,49.62
2023-12-20T04:40:03.192Z,49.64
2023-12-20T04:42:29.956Z,49.64
2023-12-20T04:44:56.668Z,49.57
2023-12-20T04:47:23.385Z,49.48
2023-12-20T04:49:50.154Z,49.61
2023-12-20T04:52:17.184Z,49.59
2023-12-20T04:54:45.137Z,49.54
2023-12-20T04:57:12.035Z,49.58
2023-12-20T04:59:38.733Z,49.51
2023-12-20T05:02:05.482Z,49.54
2023-12-20T05:04:32.267Z,49.55
2023-12-20T05:06:59.207Z,49.54
2023-12-20T05:09:25.939Z,49.62
2023-12-20T05:11:52.809Z,49.62
2023-12-20T05:14:19.524Z,49.62
2023-12-20T05:16:46.433Z,49.75
2023-12-20T05:19:13.220Z,49.38
2023-12-20T05:21:39.972Z,49.74
2023-12-20T05:24:06.684Z,49.59
2023-12-20T05:26:33.385Z,49.69
2023-12-20T05:29:00.075Z,49.60
2023-12-20T05:31:26.816Z,49.60
2023-12-20T05:33:53.660Z,49.67
2023-12-20T05:36:20.420Z,49.54
2023-12-20T05:38:47.121Z,49.55
2023-12-20T05:41:13.825Z,49.75
2023-12-20T05:43:40.727Z,49.68
2023-12-20T05:46:07.509Z,49.64
2023-12-20T05:48:34.290Z,49.74
2023-12-20T05:51:00.968Z,49.65
2023-12-20T05:53:27.652Z,49.70
2023-12-20T05:55:54.325Z,49.92
2023-12-20T05:58:21.047Z,49.87
2023-12-20T06:00:47.898Z,49.85
2023-12-20T06:03:14.672Z,49.78
2023-12-20T06:05:41.384Z,49.70
2023-12-20T06:08:08.069Z,49.92
2023-12-20T06:10:34.769Z,49.84
2023-12-20T06:13:01.728Z,49.70
2023-12-20T06:15:28.461Z,49.87
2023-12-20T06:17:55.204Z,49.85
2023-12-20T06:20:22.746Z,49.86
2023-12-20T06:22:49.493Z,49.82
2023-12-20T06:25:16.230Z,49.87
2023-12-20T06:27:43.006Z,49.90
2023-12-20T06:30:09.772Z,49.79
2023-12-20T06:32:36.493Z,49.74
2023-12-20T06:35:03.252Z,49.79
2023-12-20T06:37:30.251Z,49.76
2023-12-20T06:39:56.939Z,49.97
2023-12-20T06:42:23.667Z,49.92
2023-12-20T06:44:50.328Z,49.79
2023-12-20T06:47:17.014Z,49.95
2023-12-20T06:49:43.774Z,49.87
2023-12-20T06:52:10.496Z,49.96
2023-12-20T06:54:37.192Z,49.95
2023-12-20T06:57:03.981Z,49.79
2023-12-20T06:59:30.704Z,49.88
2023-12-20T07:01:57.486Z,49.79
2023-12-20T07:04:24.659Z,49.79
2023-12-20T07:06:51.513Z,49.89
2023-12-20T07:09:18.215Z,49.79
2023-12-20T07:11:44.901Z,49.97
2023-12-20T07:14:11.574Z,49.79
2023-12-20T07:16:38.270Z,49.85
2023-12-20T07:19:05.118Z,49.93
2023-12-20T07:21:32.031Z,49.82
2023-12-20T07:23:58.716Z,49.82
2023-12-20T07:26:25.472Z,49.84
2023-12-20T07:28:52.151Z,49.66
2023-12-20T07:31:18.904Z,49.90
2023-12-20T07:33:45.828Z,49.82
2023-12-20T07:36:12.691Z,49.85
2023-12-20T07:38:39.622Z,49.82
2023-12-20T07:41:06.313Z,49.87
2023-12-20T07:43:32.968Z,49.68
2023-12-20T07:45:59.940Z,50.00
2023-12-20T07:48:26.700Z,49.97
2023-12-20T07:50:53.438Z,49.98
2023-12-20T07:53:20.130Z,49.89
2023-12-20T07:55:47.029Z,49.87
2023-12-20T07:58:13.731Z,49.92
2023-12-20T08:00:40.419Z,49.83
2023-12-20T08:03:07.109Z,49.92
2023-12-20T08:05:33.815Z,49.95
2023-12-20T08:08:00.509Z,49.78
2023-12-20T08:10:27.229Z,49.85
2023-12-20T08:12:54.181Z,49.85
2023-12-20T08:15:20.887Z,49.84
2023-12-20T08:17:47.889Z,49.91
2023-12-20T08:20:19.881Z,49.73
2023-12-20T08:22:49.920Z,49.96
2023-12-20T08:25:16.653Z,49.79
2023-12-20T08:27:43.513Z,49.90
2023-12-20T08:30:10.522Z,49.93
2023-12-20T08:32:37.294Z,49.71
2023-12-20T08:35:04.091Z,49.87
2023-12-20T08:37:30.874Z,49.91
2023-12-20T08:39:57.646Z,49.78
2023-12-20T08:42:24.573Z,49.84
2023-12-20T08:44:51.252Z,49.68
2023-12-20T08:47:17.979Z,49.72
2023-12-20T08:49:44.803Z,49.79
2023-12-20T08:52:11.631Z,49.57
2023-12-20T08:54:38.592Z,49.88
2023-12-20T08:57:05.293Z,49.76
2023-12-20T08:59:31.989Z,49.55
2023-12-20T09:01:58.757Z,49.64
2023-12-20T09:04:25.576Z,49.51
2023-12-20T09:06:52.373Z,49.77
2023-12-20T09:09:19.123Z,49.79
2023-12-20T09:11:46.066Z,49.69
2023-12-20T09:14:12.732Z,49.77
2023-12-20T09:16:39.457Z,49.69
2023-12-20T09:19:06.220Z,49.73
2023-12-20T09:21:32.944Z,49.82
2023-12-20T09:23:59.706Z,49.70
2023-12-20T09:26:30.939Z,49.54
2023-12-20T09:28:57.641Z,49.72
2023-12-20T09:31:24.369Z,49.76
2023-12-20T09:33:51.426Z,49.74
2023-12-20T09:36:18.219Z,49.72
2023-12-20T09:38:46.858Z,49.64
2023-12-20T09:41:14.069Z,49.67
2023-12-20T09:43:40.758Z,49.66
2023-12-20T09:46:07.465Z,49.75
2023-12-20T09:48:34.191Z,49.87
2023-12-20T09:51:00.880Z,49.55
2023-12-20T09:53:27.574Z,49.76
2023-12-20T09:55:54.346Z,49.87
2023-12-20T09:58:21.091Z,49.71
2023-12-20T10:00:48.378Z,49.82
2023-12-20T10:03:16.308Z,49.70
2023-12-20T10:05:43.169Z,49.71
2023-12-20T10:08:10.184Z,49.69
2023-12-20T10:10:42.605Z,49.61
2023-12-20T10:13:14.875Z,49.70
2023-12-20T10:15:41.807Z,49.55
2023-12-20T10:18:10.550Z,49.80
2023-12-20T10:20:37.541Z,49.48
2023-12-20T10:23:04.335Z,49.81
2023-12-20T10:25:31.066Z,49.76
2023-12-20T10:27:57.887Z,49.70
2023-12-20T10:30:24.599Z,49.71
2023-12-20T10:32:51.841Z,49.60
2023-12-20T10:35:18.572Z,49.41
2023-12-20T10:37:45.497Z,49.72
2023-12-20T10:40:12.441Z,49.72
2023-12-20T10:42:39.133Z,49.70
2023-12-20T10:45:05.878Z,49.72
2023-12-20T10:47:32.612Z,49.57
2023-12-20T10:49:59.488Z,49.61
2023-12-20T10:52:26.381Z,49.80
2023-12-20T10:54:53.227Z,49.56
2023-12-20T10:57:20.009Z,49.83
2023-12-20T10:59:48.757Z,49.75
2023-12-20T11:02:17.639Z,49.82
2023-12-20T11:04:44.510Z,49.62
2023-12-20T11:07:11.373Z,49.57
2023-12-20T11:09:38.161Z,49.74
2023-12-20T11:12:04.908Z,49.56
2023-12-20T11:14:31.601Z,49.66
2023-12-20T11:16:58.322Z,49.69
2023-12-20T11:19:25.086Z,49.56
2023-12-20T11:21:51.820Z,49.69
2023-12-20T11:24:18.741Z,49.47
2023-12-20T11:26:45.468Z,49.74
2023-12-20T11:29:12.130Z,49.83
2023-12-20T11:31:38.875Z,49.60
2023-12-20T11:34:05.642Z,49.62
2023-12-20T11:36:32.424Z,49.34
2023-12-20T11:38:59.479Z,49.55
2023-12-20T11:41:26.182Z,49.60
2023-12-20T11:43:52.896Z,49.62
2023-12-20T11:46:19.609Z,49.44
2023-12-20T11:48:46.397Z,49.56
2023-12-20T11:51:13.167Z,49.75
2023-12-20T11:53:39.859Z,49.76
2023-12-20T11:56:06.574Z,49.72
2023-12-20T11:58:33.315Z,49.75
2023-12-20T12:01:00.143Z,49.59
2023-12-20T12:03:27.145Z,49.69
2023-12-20T12:05:53.933Z,49.72
2023-12-20T12:08:20.685Z,49.59
2023-12-20T12:10:47.376Z,49.80
2023-12-20T12:13:14.110Z,49.67
2023-12-20T12:15:40.886Z,49.79
2023-12-20T12:18:07.641Z,49.89
2023-12-20T12:20:35.895Z,49.68
2023-12-20T12:23:04.362Z,49.64
2023-12-20T12:25:31.290Z,49.73
2023-12-20T12:27:58.107Z,49.60
2023-12-20T12:30:24.823Z,49.76
2023-12-20T12:32:51.708Z,49.56
2023-12-20T12:35:18.477Z,49.65
2023-12-20T12:37:45.390Z,49.72
2023-12-20T12:40:12.325Z,49.65
2023-12-20T12:42:39.136Z,49.71
2023-12-20T12:45:05.796Z,49.75
2023-12-20T12:47:32.761Z,49.67
2023-12-20T12:49:59.583Z,49.62
2023-12-20T12:52:26.457Z,49.67
2023-12-20T12:54:53.263Z,49.58
2023-12-20T12:57:19.957Z,49.78
2023-12-20T12:59:46.670Z,49.48
2023-12-20T13:02:13.380Z,49.77
2023-12-20T13:04:40.200Z,49.55
2023-12-20T13:07:07.132Z,49.44
2023-12-20T13:09:34.102Z,49.66
2023-12-20T13:12:00.811Z,49.61
2023-12-20T13:14:27.509Z,49.78
2023-12-20T13:16:54.198Z,49.71
2023-12-20T13:19:21.025Z,49.64
2023-12-20T13:21:47.806Z,49.75
2023-12-20T13:24:14.496Z,49.72
2023-12-20T13:26:41.168Z,49.70
2023-12-20T13:29:07.851Z,49.63
2023-12-20T13:31:34.824Z,49.66
2023-12-20T13:34:01.668Z,49.86
2023-12-20T13:36:28.465Z,49.79
2023-12-20T13:38:55.163Z,49.79
2023-12-20T13:41:21.878Z,49.85
2023-12-20T13:43:48.568Z,49.80
2023-12-20T13:46:15.374Z,49.73
2023-12-20T13:48:42.349Z,49.81
2023-12-20T13:51:09.053Z,49.66
2023-12-20T13:53:35.738Z,49.82
2023-12-20T13:56:02.518Z,49.76
2023-12-20T13:58:29.278Z,49.67
2023-12-20T14:00:56.068Z,49.78
2023-12-20T14:03:22.816Z,49.83
2023-12-20T14:05:49.747Z,49.70
2023-12-20T14:08:16.538Z,49.78
2023-12-20T14:10:43.242Z,49.65
2023-12-20T14:13:10.075Z,49.63
2023-12-20T14:15:36.763Z,49.72
2023-12-20T14:18:03.458Z,49.66
2023-12-20T14:20:30.140Z,49.74
2023-12-20T14:22:57.467Z,49.65
2023-12-20T14:25:24.285Z,49.53
2023-12-20T14:27:51.421Z,49.55
2023-12-20T14:30:18.613Z,49.45
2023-12-20T14:32:45.698Z,49.72
2023-12-20T14:35:12.805Z,49.38
2023-12-20T14:37:39.748Z,49.68
2023-12-20T14:40:06.469Z,49.66
2023-12-20T14:42:33.176Z,49.74
2023-12-20T14:44:59.861Z,49.55
2023-12-20T14:47:26.572Z,49.70
2023-12-20T14:49:53.334Z,49.76
2023-12-20T14:52:20.119Z,49.61
2023-12-20T14:54:46.895Z,49.79
2023-12-20T14:57:13.575Z,49.67
2023-12-20T14:59:40.257Z,49.69
2023-12-20T15:02:07.064Z,49.86
2023-12-20T15:04:33.937Z,49.74
2023-12-20T15:07:00.745Z,49.77
2023-12-20T15:09:27.419Z,49.74
2023-12-20T15:11:54.094Z,49.67
2023-12-20T15:14:21.210Z,49.83
2023-12-20T15:16:47.929Z,49.76
2023-12-20T15:19:14.918Z,49.60
2023-12-20T15:21:44.130Z,49.89
2023-12-20T15:24:12.781Z,49.71
2023-12-20T15:26:39.461Z,49.72
2023-12-20T15:29:06.394Z,49.80
2023-12-20T15:31:33.103Z,49.74
2023-12-20T15:34:00.225Z,49.84
2023-12-20T15:36:27.001Z,49.70
2023-12-20T15:38:53.937Z,49.83
2023-12-20T15:41:20.626Z,49.87
2023-12-20T15:43:47.565Z,49.60
2023-12-20T15:46:14.250Z,49.83
2023-12-20T15:48:41.056Z,49.69
2023-12-20T15:51:07.786Z,49.83
2023-12-20T15:53:34.475Z,49.81
2023-12-20T15:56:01.373Z,49.86
2023-12-20T15:58:28.274Z,49.83
2023-12-20T16:00:55.086Z,49.91
2023-12-20T16:03:24.996Z,49.91
2023-12-20T16:05:52.763Z,49.85
2023-12-20T16:08:19.566Z,50.08
2023-12-20T16:10:46.268Z,49.79
2023-12-20T16:13:12.976Z,49.88
2023-12-20T16:15:39.674Z,49.80
2023-12-20T16:18:06.384Z,49.83
2023-12-20T16:20:33.088Z,49.86
2023-12-20T16:22:59.789Z,49.85
2023-12-20T16:25:26.509Z,49.74
2023-12-20T16:27:53.461Z,49.93
2023-12-20T16:30:20.476Z,49.85
2023-12-20T16:32:47.241Z,49.87
2023-12-20T16:35:14.285Z,49.92
2023-12-20T16:37:41.017Z,49.78
2023-12-20T16:40:08.092Z,49.68
2023-12-20T16:42:34.850Z,49.84
2023-12-20T16:45:01.535Z,49.83
2023-12-20T16:47:28.270Z,49.81
2023-12-20T16:49:55.083Z,49.70
2023-12-20T16:52:21.864Z,49.76
2023-12-20T16:54:48.572Z,49.83
2023-12-20T16:57:15.305Z,49.73
2023-12-20T16:59:41.985Z,49.94
2023-12-20T17:02:08.833Z,49.83
2023-12-20T17:04:35.845Z,49.94
2023-12-20T17:07:02.671Z,49.77
2023-12-20T17:09:32.072Z,49.81
2023-12-20T17:11:58.935Z,49.97
2023-12-20T17:14:25.594Z,49.74
2023-12-20T17:16:52.320Z,49.81
2023-12-20T17:19:19.083Z,49.82
2023-12-20T17:21:45.927Z,49.76
2023-12-20T17:24:12.608Z,49.89
2023-12-20T17:26:39.268Z,49.89
2023-12-20T17:29:05.954Z,49.83
2023-12-20T17:31:32.706Z,49.75
2023-12-20T17:33:59.490Z,49.77
2023-12-20T17:36:26.497Z,49.72
2023-12-20T17:38:53.191Z,49.92
2023-12-20T17:41:20.106Z,49.78
2023-12-20T17:43:46.831Z,49.76
2023-12-20T17:46:13.829Z,49.96
2023-12-20T17:48:40.572Z,49.89
2023-12-20T17:51:07.546Z,49.90
2023-12-20T17:53:34.244Z,49.98
2023-12-20T17:56:01.231Z,49.88
2023-12-20T17:58:27.964Z,49.75
2023-12-20T18:00:54.968Z,50.02
2023-12-20T18:03:21.700Z,49.82
2023-12-20T18:05:48.673Z,49.89
2023-12-20T18:08:15.383Z,49.85
2023-12-20T18:10:42.520Z,49.62
2023-12-20T18:13:09.297Z,49.91
2023-12-20T18:15:36.010Z,49.67
2023-12-20T18:18:02.771Z,49.82
2023-12-20T18:20:29.664Z,49.94
2023-12-20T18:22:56.538Z,49.92
2023-12-20T18:25:23.244Z,49.94
2023-12-20T18:27:50.094Z,49.89
2023-12-20T18:30:17.694Z,49.98
2023-12-20T18:32:45.381Z,49.80
2023-12-20T18:35:12.529Z,49.79
2023-12-20T18:37:39.672Z,49.96
2023-12-20T18:40:06.399Z,49.80
2023-12-20T18:42:33.352Z,50.00
2023-12-20T18:45:00.040Z,49.68
2023-12-20T18:47:26.713Z,49.86
2023-12-20T18:49:53.546Z,49.87
2023-12-20T18:52:20.646Z,49.88
2023-12-20T18:54:47.372Z,49.92
2023-12-20T18:57:14.288Z,49.91
2023-12-20T18:59:40.989Z,49.91
2023-12-20T19:02:08.008Z,49.91
2023-12-20T19:04:34.754Z,49.83
2023-12-20T19:07:01.780Z,50.00
2023-12-20T19:09:28.516Z,49.85
2023-12-20T19:11:55.227Z,49.97
2023-12-20T19:14:21.899Z,50.00
2023-12-20T19:16:48.838Z,49.87
2023-12-20T19:19:15.690Z,49.85
2023-12-20T19:21:42.458Z,49.71
2023-12-20T19:24:09.148Z,49.85
2023-12-20T19:26:35.838Z,49.98
2023-12-20T19:29:02.519Z,49.82
2023-12-20T19:31:29.212Z,49.91
2023-12-20T19:33:55.975Z,49.96
2023-12-20T19:36:22.726Z,49.65
2023-12-20T19:38:49.419Z,49.76
2023-12-20T19:41:16.150Z,49.93
2023-12-20T19:43:42.847Z,49.83
2023-12-20T19:46:09.557Z,50.04
2023-12-20T19:48:36.292Z,49.92
2023-12-20T19:51:03.011Z,49.99
2023-12-20T19:53:29.706Z,50.00
2023-12-20T19:55:56.390Z,49.84
2023-12-20T19:58:23.209Z,50.01
2023-12-20T20:00:55.280Z,49.95
2023-12-20T20:03:22.936Z,49.77
2023-12-20T20:05:49.843Z,49.98
2023-12-20T20:08:16.687Z,49.81
2023-12-20T20:10:43.377Z,49.96
2023-12-20T20:13:10.124Z,49.92
2023-12-20T20:15:36.813Z,49.77
2023-12-20T20:18:03.591Z,49.93
2023-12-20T20:20:30.334Z,49.89
2023-12-20T20:22:57.019Z,50.00
2023-12-20T20:25:25.259Z,49.97
2023-12-20T20:27:53.298Z,49.88
2023-12-20T20:30:20.054Z,49.97
2023-12-20T20:32:49.900Z,49.89
2023-12-20T20:35:18.386Z,49.99
2023-12-20T20:37:45.380Z,50.03
2023-12-20T20:40:12.291Z,49.92
2023-12-20T20:42:38.988Z,49.95
2023-12-20T20:45:05.661Z,50.02
2023-12-20T20:47:32.609Z,49.94
2023-12-20T20:49:59.465Z,50.04
2023-12-20T20:52:26.245Z,49.94
2023-12-20T20:54:52.956Z,50.02
2023-12-20T20:57:19.647Z,50.01
2023-12-20T20:59:46.590Z,49.97
2023-12-20T21:02:13.272Z,50.06
2023-12-20T21:04:40.215Z,50.08
2023-12-20T21:07:06.920Z,49.95
2023-12-20T21:09:33.895Z,50.08
2023-12-20T21:12:00.590Z,49.92
2023-12-20T21:14:27.526Z,49.97
2023-12-20T21:16:54.230Z,50.01
2023-12-20T21:19:21.253Z,49.92
2023-12-20T21:21:48.000Z,50.03
2023-12-20T21:24:15.030Z,49.99
2023-12-20T21:26:41.940Z,49.81
2023-12-20T21:29:08.888Z,50.08
2023-12-20T21:31:35.572Z,50.02
2023-12-20T21:34:02.537Z,49.97
2023-12-20T21:36:29.280Z,49.97
2023-12-20T21:38:55.974Z,49.99
2023-12-20T21:41:23.719Z,49.97
2023-12-20T21:43:50.769Z,49.93
2023-12-20T21:46:17.472Z,49.86
2023-12-20T21:48:44.173Z,49.91
2023-12-20T21:51:10.861Z,49.97
2023-12-20T21:53:37.536Z,49.94
2023-12-20T21:56:04.234Z,50.00
2023-12-20T21:58:30.981Z,49.77
2023-12-20T22:00:57.827Z,49.97
2023-12-20T22:03:24.632Z,50.03
2023-12-20T22:05:51.353Z,49.98
2023-12-20T22:08:18.079Z,50.05
2023-12-20T22:10:44.765Z,50.04
2023-12-20T22:13:11.510Z,49.95
2023-12-20T22:15:38.216Z,50.02
2023-12-20T22:18:04.896Z,49.98
2023-12-20T22:20:31.692Z,50.08
2023-12-20T22:22:58.411Z,49.99
2023-12-20T22:25:25.168Z,49.97
2023-12-20T22:27:51.964Z,50.01
2023-12-20T22:30:18.725Z,50.02
2023-12-20T22:32:45.477Z,49.86
2023-12-20T22:35:12.190Z,50.07
2023-12-20T22:37:38.901Z,50.01
2023-12-20T22:40:05.696Z,50.06
2023-12-20T22:42:32.405Z,50.01
2023-12-20T22:44:59.118Z,50.05
2023-12-20T22:47:25.837Z,50.14
2023-12-20T22:49:52.573Z,50.05
2023-12-20T22:52:19.297Z,49.97
2023-12-20T22:54:45.980Z,50.08
2023-12-20T22:57:12.668Z,50.05
2023-12-20T22:59:39.399Z,50.03
2023-12-20T23:02:06.218Z,49.97
2023-12-20T23:04:33.020Z,49.92
2023-12-20T23:06:59.785Z,50.08
2023-12-20T23:09:26.489Z,49.97
2023-12-20T23:11:53.175Z,50.00
2023-12-20T23:14:19.856Z,50.03
2023-12-20T23:16:46.534Z,50.06
2023-12-20T23:19:13.316Z,50.04
2023-12-20T23:21:40.090Z,50.07
2023-12-20T23:24:06.782Z,49.96
2023-12-20T23:26:33.484Z,50.14
2023-12-20T23:29:00.198Z,50.03
2023-12-20T23:31:26.932Z,50.00
2023-12-20T23:33:53.838Z,50.08
2023-12-20T23:36:20.652Z,50.01
2023-12-20T23:38:47.382Z,50.06
2023-12-20T23:41:14.106Z,50.04
2023-12-20T23:43:40.834Z,49.92
2023-12-20T23:46:07.726Z,50.14
2023-12-20T23:48:34.491Z,50.09
2023-12-20T23:51:01.259Z,50.10
2023-12-20T23:53:27.953Z,50.14
2023-12-20T23:55:54.630Z,49.89
2023-12-20T23:58:22.342Z,50.07
